Maryland METAR Reports


Distance/Direction noted is from Ellicott City, MD as the crow flies

KCBE - Cumberland - 118 miles WNW
Updated: Tue, 09/02/2014 2:30 PM
Partly Cloudy
Partly Cloudy
 Wind from SW
Wind: SW 10 mph
Temperature: 91°F
Dew Point: 63°F
Humidity: 38%
Barometer: 29.95 inHg
Clouds: Partly Cloudy
Visibility: 10 miles
Cloud Details: Partly Cloudy 5000 ft
Partly Cloudy 6500 ft
2014/09/02 18:30 KCBE 021830Z AUTO 23009KT 10SM SCT050 SCT065 33/17 A2995 RMK AO1
KHGR - Hagerstown - 57 miles NW
Updated: Tue, 09/02/2014 1:53 PM
Clear
Clear
 Wind from SW
Wind: SW 7 mph
Temperature: 88°F
Heat Index: 91°F
Dew Point: 66°F
Humidity: 49%
Barometer: 29.92 inHg
Clouds: Clear
Visibility: 10 miles
2014/09/02 17:53 KHGR 021753Z 22006KT 10SM CLR 31/19 A2992 RMK AO2 SLP134 T03060194 10311 20239 58022
 
KFDK - Frederick - 34 miles NW
Updated: Tue, 09/02/2014 1:45 PM
Mostly Cloudy
Mostly Cloudy
 Wind from calm
Wind: Calm
Temperature: 88°F
Heat Index: 93°F
Dew Point: 70°F
Humidity: 55%
Barometer: 29.95 inHg
Clouds: Mostly Cloudy
Visibility: 10 miles
Cloud Details: Partly Cloudy 4400 ft
Mostly Cloudy 5000 ft
Mostly Cloudy 9500 ft
2014/09/02 17:45 KFDK 021745Z 00000KT 10SM SCT044 BKN050 BKN095 31/21 A2995
KGAI - Gaithersburg - 26 miles SW
Updated: Tue, 09/02/2014 2:35 PM
Partly Cloudy
Partly Cloudy
 Wind from SSW
Wind: SSW 8 mph
Temperature: 90°F
Heat Index: 96°F
Dew Point: 70°F
Humidity: 52%
Barometer: 29.96 inHg
Clouds: Partly Cloudy
Visibility: 10 miles
Cloud Details: Few Clouds 4700 ft
Partly Cloudy 6000 ft
2014/09/02 18:35 KGAI 021835Z AUTO 21007KT 10SM FEW047 SCT060 32/21 A2996 RMK AO1
 
KBWI - BWI Airport - 15 miles SE
Updated: Tue, 09/02/2014 1:54 PM
Partly Cloudy
Partly Cloudy
 Wind from WSW
Wind: WSW 7 mph
Temperature: 90°F
Heat Index: 96°F
Dew Point: 70°F
Humidity: 52%
Barometer: 29.92 inHg
Clouds: Partly Cloudy
Visibility: 10 miles
Cloud Details: Partly Cloudy 5000 ft
Partly Cloudy 25000 ft
2014/09/02 17:54 KBWI 021754Z 25006KT 10SM SCT050TCU SCT250 32/21 A2992 RMK AO2 SLP131 TCU E AND S T03220206 10322 20244 58017
KNAK - Annapolis - 32 miles SSE
Updated: Tue, 09/02/2014 1:54 PM
Partly Cloudy
Partly Cloudy
 Wind from WNW
Wind: WNW 8 mph
Temperature: 90°F
Heat Index: 93°F
Dew Point: 66°F
Humidity: 46%
Barometer: 29.93 inHg
Clouds: Partly Cloudy
Visibility: 10 miles
Cloud Details: Few Clouds 6500 ft
Partly Cloudy 10000 ft
2014/09/02 17:54 KNAK 021754Z AUTO 30007KT 10SM FEW065 SCT100 32/19 A2993 RMK AO2 SLP138 T03220194 10322 20261 56014
 
KESN - Easton - 63 miles SE
Updated: Tue, 09/02/2014 1:50 PM
Partly Cloudy
Partly Cloudy
 Wind from W
Wind: W 5 mph
Temperature: 93°F
Heat Index: 97°F
Dew Point: 68°F
Humidity: 44%
Barometer: 29.98 inHg
Clouds: Partly Cloudy
Visibility: 10 miles
Cloud Details: Few Clouds 3000 ft
Partly Cloudy 15000 ft
2014/09/02 17:50 KESN 021750Z 27004KT 10SM FEW030 SCT150 34/20 A2998
KSBY - Salisbury - 112 miles SE
Updated: Tue, 09/02/2014 1:54 PM
Clear
Clear
 Wind from varies
Wind: varies 7 mph
Temperature: 97°F
Dew Point: 66°F
Humidity: 37%
Barometer: 29.94 inHg
Clouds: Clear
Visibility: 10 miles
2014/09/02 17:54 KSBY 021754Z VRB06KT 10SM CLR 36/19 A2994 RMK AO2 SLP139 T03560194 10356 20261 58016